createdAt,value
2022-11-08T00:01:38.906Z,100334.16
2022-11-08T00:04:27.462Z,100327.38
2022-11-08T00:07:33.356Z,100320.59
2022-11-08T00:10:39.525Z,100335.19
2022-11-08T00:13:45.473Z,100336.63
2022-11-08T00:16:33.987Z,100337.66
2022-11-08T00:19:23.736Z,100335.38
2022-11-08T00:22:12.746Z,100336.63
2022-11-08T00:25:01.189Z,100336.41
2022-11-08T00:27:49.715Z,100339.09
2022-11-08T00:30:38.237Z,100333.72
2022-11-08T00:33:26.770Z,100334.75
2022-11-08T00:36:16.721Z,100338.88
2022-11-08T00:39:05.284Z,100331.47
2022-11-08T00:41:53.807Z,100334.34
2022-11-08T00:44:42.409Z,100336.41
2022-11-08T00:47:30.928Z,100335.19
2022-11-08T00:50:19.456Z,100326.53
2022-11-08T00:53:09.229Z,100332.28
2022-11-08T00:56:01.502Z,100326.94
2022-11-08T00:58:49.947Z,100326.94
2022-11-08T01:01:38.575Z,100334.94
2022-11-08T01:04:27.103Z,100334.94
2022-11-08T01:07:15.588Z,100337.63
2022-11-08T01:10:05.929Z,100329.59
2022-11-08T01:12:54.391Z,100322.00
2022-11-08T01:15:44.272Z,100314.22
2022-11-08T01:18:32.757Z,100311.31
2022-11-08T01:21:21.410Z,100311.31
2022-11-08T01:24:12.901Z,100302.69
2022-11-08T01:27:02.781Z,100310.88
2022-11-08T01:29:51.223Z,100300.19
2022-11-08T01:32:40.053Z,100296.72
2022-11-08T01:35:29.008Z,100306.38
2022-11-08T01:38:17.671Z,100304.31
2022-11-08T01:41:06.712Z,100301.44
2022-11-08T01:43:57.215Z,100310.09
2022-11-08T01:46:47.466Z,100297.75
2022-11-08T01:49:39.629Z,100296.91
2022-11-08T01:52:32.100Z,100298.16
2022-11-08T01:55:23.409Z,100291.78
2022-11-08T01:58:13.322Z,100286.22
2022-11-08T02:01:03.824Z,100281.09
2022-11-08T02:03:52.551Z,100276.78
2022-11-08T02:06:41.276Z,100274.13
2022-11-08T02:09:29.885Z,100283.56
2022-11-08T02:12:19.279Z,100276.78
2022-11-08T02:15:09.430Z,100266.91
2022-11-08T02:17:59.292Z,100272.66
2022-11-08T02:20:53.493Z,100277.19
2022-11-08T02:23:46.873Z,100273.47
2022-11-08T02:26:36.674Z,100275.34
2022-11-08T02:29:27.734Z,100278.81
2022-11-08T02:32:16.264Z,100283.97
2022-11-08T02:35:05.365Z,100279.66
2022-11-08T02:37:54.220Z,100272.66
2022-11-08T02:40:51.494Z,100275.13
2022-11-08T02:43:40.067Z,100271.84
2022-11-08T02:46:28.687Z,100262.78
2022-11-08T02:49:17.330Z,100276.78
2022-11-08T02:52:06.739Z,100269.78
2022-11-08T02:54:55.312Z,100262.78
2022-11-08T02:57:45.279Z,100261.16
2022-11-08T03:00:34.518Z,100272.88
2022-11-08T03:03:24.148Z,100270.19
2022-11-08T03:06:12.556Z,100275.94
2022-11-08T03:09:01.219Z,100274.31
2022-11-08T03:11:49.727Z,100274.31
2022-11-08T03:14:39.601Z,100283.34
2022-11-08T03:17:28.066Z,100283.72
2022-11-08T03:20:16.648Z,100280.06
2022-11-08T03:23:07.477Z,100288.06
2022-11-08T03:25:56.236Z,100278.38
2022-11-08T03:28:44.756Z,100289.06
2022-11-08T03:31:34.588Z,100284.75
2022-11-08T03:34:23.059Z,100289.06
2022-11-08T03:37:12.063Z,100288.44
2022-11-08T03:40:00.568Z,100298.53
2022-11-08T03:42:49.451Z,100301.19
2022-11-08T03:45:37.913Z,100297.09
2022-11-08T03:48:27.769Z,100297.72
2022-11-08T03:51:16.207Z,100300.41
2022-11-08T03:54:04.762Z,100295.25
2022-11-08T03:56:53.206Z,100289.06
2022-11-08T03:59:41.682Z,100299.75
2022-11-08T04:02:30.237Z,100293.59
2022-11-08T04:05:20.383Z,100296.28
2022-11-08T04:08:08.874Z,100301.81
2022-11-08T04:10:57.360Z,100298.09
2022-11-08T04:14:03.541Z,100292.75
2022-11-08T04:16:52.028Z,100291.97
2022-11-08T04:19:58.177Z,100293.59
2022-11-08T04:22:47.961Z,100291.34
2022-11-08T04:25:36.348Z,100291.13
2022-11-08T04:28:26.908Z,100293.19
2022-11-08T04:31:16.591Z,100284.75
2022-11-08T04:34:05.216Z,100279.63
2022-11-08T04:36:53.771Z,100280.44
2022-11-08T04:39:43.618Z,100274.28
2022-11-08T04:42:32.042Z,100285.78
2022-11-08T04:45:20.441Z,100276.34
2022-11-08T04:48:09.147Z,100273.88
2022-11-08T04:50:57.850Z,100274.47
2022-11-08T04:53:46.761Z,100276.53
2022-11-08T04:56:36.537Z,100286.81
2022-11-08T04:59:25.014Z,100282.50
2022-11-08T05:02:13.611Z,100284.56
2022-11-08T05:05:02.148Z,100283.72
2022-11-08T05:07:50.753Z,100282.09
2022-11-08T05:10:39.212Z,100284.75
2022-11-08T05:13:29.088Z,100284.97
2022-11-08T05:16:19.374Z,100276.38
2022-11-08T05:19:12.834Z,100279.41
2022-11-08T05:22:19.537Z,100283.06
2022-11-08T05:25:08.669Z,100286.19
2022-11-08T05:27:57.122Z,100288.63
2022-11-08T05:30:46.907Z,100300.13
2022-11-08T05:33:35.416Z,100296.97
2022-11-08T05:36:24.158Z,100294.31
2022-11-08T05:39:12.605Z,100295.94
2022-11-08T05:42:01.004Z,100293.91
2022-11-08T05:44:49.568Z,100290.59
2022-11-08T05:47:40.069Z,100297.25
2022-11-08T05:50:28.551Z,100298.44
2022-11-08T05:53:17.349Z,100297.69
2022-11-08T05:56:06.512Z,100305.06
2022-11-08T05:58:54.934Z,100298.88
2022-11-08T06:01:43.580Z,100305.44
2022-11-08T06:04:33.642Z,100306.28
2022-11-08T06:07:22.114Z,100307.31
2022-11-08T06:10:11.075Z,100310.59
2022-11-08T06:13:00.950Z,100307.94
2022-11-08T06:15:49.374Z,100306.09
2022-11-08T06:18:38.411Z,100310.03
2022-11-08T06:21:28.263Z,100313.72
2022-11-08T06:24:17.380Z,100299.94
2022-11-08T06:27:05.947Z,100300.13
2022-11-08T06:29:54.706Z,100303.81
2022-11-08T06:32:43.223Z,100298.47
2022-11-08T06:35:31.691Z,100298.88
2022-11-08T06:38:21.544Z,100299.91
2022-11-08T06:41:18.252Z,100311.63
2022-11-08T06:44:06.884Z,100310.81
2022-11-08T06:46:56.728Z,100305.47
2022-11-08T06:49:45.227Z,100302.59
2022-11-08T06:52:33.742Z,100293.13
2022-11-08T06:55:23.673Z,100303.81
2022-11-08T06:58:12.544Z,100298.47
2022-11-08T07:01:04.438Z,100292.53
2022-11-08T07:03:52.930Z,100293.75
2022-11-08T07:06:41.412Z,100295.81
2022-11-08T07:09:29.856Z,100294.16
2022-11-08T07:12:19.644Z,100291.50
2022-11-08T07:15:08.774Z,100297.03
2022-11-08T07:18:01.397Z,100302.19
2022-11-08T07:20:50.137Z,100300.53
2022-11-08T07:23:38.630Z,100295.19
2022-11-08T07:26:27.043Z,100298.06
2022-11-08T07:29:16.823Z,100307.94
2022-11-08T07:32:05.686Z,100301.56
2022-11-08T07:34:54.091Z,100303.81
2022-11-08T07:37:42.624Z,100301.16
2022-11-08T07:40:31.065Z,100294.78
2022-11-08T07:43:19.529Z,100301.78
2022-11-08T07:46:09.441Z,100299.94
2022-11-08T07:48:57.881Z,100298.53
2022-11-08T07:51:46.397Z,100290.75
2022-11-08T07:54:34.965Z,100289.91
2022-11-08T07:57:23.393Z,100298.97
2022-11-08T08:00:12.832Z,100292.81
2022-11-08T08:03:03.383Z,100290.56
2022-11-08T08:05:59.472Z,100287.97
2022-11-08T08:08:49.248Z,100297.00
2022-11-08T08:11:37.733Z,100295.56
2022-11-08T08:14:26.190Z,100290.81
2022-11-08T08:17:14.651Z,100297.00
2022-11-08T08:20:04.500Z,100290.00
2022-11-08T08:22:53.410Z,100291.41
2022-11-08T08:25:41.863Z,100287.09
2022-11-08T08:28:30.314Z,100288.56
2022-11-08T08:31:18.814Z,100291.19
2022-11-08T08:34:07.212Z,100289.75
2022-11-08T08:36:56.992Z,100290.41
2022-11-08T08:39:45.483Z,100289.97
2022-11-08T08:42:34.402Z,100286.66
2022-11-08T08:45:24.626Z,100285.59
2022-11-08T08:48:13.078Z,100271.00
2022-11-08T08:51:01.733Z,100264.34
2022-11-08T08:53:51.592Z,100263.56
2022-11-08T08:56:40.036Z,100266.44
2022-11-08T09:02:41.287Z,100261.31
2022-11-08T09:05:32.053Z,100253.66
2022-11-08T09:08:20.564Z,100258.81
2022-11-08T09:11:10.514Z,100254.03
2022-11-08T09:13:58.950Z,100258.56
2022-11-08T09:16:47.480Z,100251.53
2022-11-08T09:19:36.100Z,100254.44
2022-11-08T09:22:24.823Z,100257.34
2022-11-08T09:25:13.470Z,100266.41
2022-11-08T09:28:03.406Z,100249.09
2022-11-08T09:30:52.046Z,100250.75
2022-11-08T09:33:42.011Z,100254.81
2022-11-08T09:36:30.495Z,100248.66
2022-11-08T09:39:19.123Z,100243.31
2022-11-08T09:42:40.797Z,100238.31
2022-11-08T09:45:34.016Z,100233.84
2022-11-08T09:48:24.904Z,100233.81
2022-11-08T09:51:15.607Z,100238.13
2022-11-08T09:54:06.614Z,100232.13
2022-11-08T09:56:56.195Z,100233.78
2022-11-08T09:59:46.726Z,100228.84
2022-11-08T10:02:38.225Z,100229.66
2022-11-08T10:05:29.285Z,100225.34
2022-11-08T10:08:25.778Z,100221.03
2022-11-08T10:11:22.502Z,100220.56
2022-11-08T10:14:28.023Z,100217.75
2022-11-08T10:17:46.996Z,100220.09
2022-11-08T10:20:45.905Z,100219.06
2022-11-08T10:23:43.808Z,100200.56
2022-11-08T10:26:37.066Z,100203.22
2022-11-08T10:29:29.289Z,100196.59
2022-11-08T10:32:21.377Z,100188.69
2022-11-08T10:35:20.396Z,100186.78
2022-11-08T10:38:18.485Z,100186.38
2022-11-08T10:41:12.086Z,100180.00
2022-11-08T10:44:06.115Z,100181.56
2022-11-08T10:47:00.267Z,100182.00
2022-11-08T10:49:48.713Z,100171.66
2022-11-08T10:52:41.137Z,100171.13
2022-11-08T10:55:33.644Z,100169.75
2022-11-08T10:58:33.570Z,100159.03
2022-11-08T11:01:23.675Z,100156.63
2022-11-08T11:04:27.557Z,100158.06
2022-11-08T11:07:34.997Z,100150.03
2022-11-08T11:10:26.292Z,100144.72
2022-11-08T11:13:21.597Z,100146.38
2022-11-08T11:16:15.010Z,100134.47
2022-11-08T11:19:04.873Z,100130.59
2022-11-08T11:21:58.214Z,100129.56
2022-11-08T11:24:49.867Z,100134.91
2022-11-08T11:27:39.706Z,100127.91
2022-11-08T11:30:34.516Z,100130.97
2022-11-08T11:33:25.997Z,100122.13
2022-11-08T11:36:15.850Z,100129.13
2022-11-08T11:39:09.541Z,100125.44
2022-11-08T11:42:24.157Z,100124.59
2022-11-08T11:45:17.957Z,100119.25
2022-11-08T11:48:13.621Z,100114.31
2022-11-08T11:51:03.569Z,100113.50
2022-11-08T11:53:52.035Z,100111.88
2022-11-08T11:56:47.409Z,100108.97
2022-11-08T11:59:47.446Z,100110.84
2022-11-08T12:02:49.606Z,100111.22
2022-11-08T12:05:44.284Z,100109.38
2022-11-08T12:08:42.768Z,100101.94
2022-11-08T12:11:48.223Z,100102.81
2022-11-08T12:14:56.334Z,100100.72
2022-11-08T12:18:41.695Z,100093.25
2022-11-08T12:21:37.458Z,100091.22
2022-11-08T12:24:36.300Z,100093.09
2022-11-08T12:27:31.723Z,100093.84
2022-11-08T12:30:22.594Z,100075.47
2022-11-08T12:33:22.484Z,100079.66
2022-11-08T12:36:17.361Z,100085.66
2022-11-08T12:39:23.182Z,100077.63
2022-11-08T12:42:19.924Z,100074.72
2022-11-08T12:45:24.445Z,100066.28
2022-11-08T12:48:22.011Z,100082.50
2022-11-08T12:51:18.314Z,100085.97
2022-11-08T12:54:21.809Z,100085.16
2022-11-08T12:57:12.508Z,100081.66
2022-11-08T13:00:06.442Z,100077.06
2022-11-08T13:03:01.659Z,100066.97
2022-11-08T13:05:53.360Z,100066.28
2022-11-08T13:08:45.838Z,100061.06
2022-11-08T13:11:39.140Z,100057.91
2022-11-08T13:14:27.908Z,100051.28
2022-11-08T13:17:26.827Z,100062.53
2022-11-08T13:20:39.894Z,100053.97
2022-11-08T13:23:33.155Z,100053.09
2022-11-08T13:26:23.082Z,100047.53
2022-11-08T13:29:23.283Z,100043.19
2022-11-08T13:32:22.108Z,100056.03
2022-11-08T13:35:17.649Z,100054.53
2022-11-08T13:38:17.784Z,100058.88
2022-11-08T13:41:18.751Z,100048.19
2022-11-08T13:44:54.141Z,100040.69
2022-11-08T13:48:01.511Z,100042.03
2022-11-08T13:50:52.435Z,100036.69
2022-11-08T13:53:45.927Z,100043.94
2022-11-08T13:56:45.919Z,100050.31
2022-11-08T13:59:58.649Z,100044.22
2022-11-08T14:02:47.186Z,100033.06
2022-11-08T14:05:45.427Z,100040.66
2022-11-08T14:08:38.639Z,100045.41
2022-11-08T14:11:38.866Z,100047.91
2022-11-08T14:14:39.066Z,100047.91
2022-11-08T14:17:35.195Z,100042.56
2022-11-08T14:20:34.970Z,100041.28
2022-11-08T14:23:29.298Z,100030.19
2022-11-08T14:26:22.285Z,100028.97
2022-11-08T14:29:10.773Z,100021.53
2022-11-08T14:32:05.420Z,100023.16
2022-11-08T14:34:54.002Z,100021.06
2022-11-08T14:37:44.790Z,100023.13
2022-11-08T14:40:34.730Z,100032.41
2022-11-08T14:43:23.901Z,100029.44
2022-11-08T14:46:14.607Z,100037.47
2022-11-08T14:49:10.511Z,100032.72
2022-11-08T14:52:22.584Z,100023.78
2022-11-08T14:55:12.819Z,100035.19
2022-11-08T14:58:14.189Z,100035.81
2022-11-08T15:01:03.236Z,100044.91
2022-11-08T15:03:55.578Z,100040.84
2022-11-08T15:06:45.640Z,100040.03
2022-11-08T15:09:35.774Z,100036.72
2022-11-08T15:12:26.013Z,100028.94
2022-11-08T15:15:22.993Z,100028.69
2022-11-08T15:18:16.361Z,100037.97
2022-11-08T15:21:07.075Z,100037.13
2022-11-08T15:24:05.867Z,100037.16
2022-11-08T15:27:08.236Z,100035.94
2022-11-08T15:30:02.152Z,100036.75
2022-11-08T15:32:52.364Z,100037.78
2022-11-08T15:35:41.037Z,100032.44
2022-11-08T15:38:32.701Z,100035.94
2022-11-08T15:41:32.869Z,100041.72
2022-11-08T15:44:23.525Z,100043.94
2022-11-08T15:47:40.152Z,100038.00
2022-11-08T15:50:31.301Z,100024.25
2022-11-08T15:53:19.886Z,100027.72
2022-11-08T15:56:08.946Z,100017.03
2022-11-08T15:58:57.483Z,100011.69
2022-11-08T16:01:52.557Z,100027.72
2022-11-08T16:04:41.258Z,100021.75
2022-11-08T16:07:31.075Z,100019.50
2022-11-08T16:10:22.034Z,100030.00
2022-11-08T16:13:12.442Z,100026.03
2022-11-08T16:16:02.033Z,100021.13
2022-11-08T16:18:50.573Z,100025.69
2022-11-08T16:21:39.176Z,100018.88
2022-11-08T16:24:29.140Z,100014.75
2022-11-08T16:27:17.715Z,100023.78
2022-11-08T16:30:10.362Z,100006.31
2022-11-08T16:32:58.928Z,100009.22
2022-11-08T16:35:47.561Z,100007.38
2022-11-08T16:38:37.745Z,100004.31
2022-11-08T16:41:28.640Z,100005.56
2022-11-08T16:44:18.459Z,100003.88
2022-11-08T16:47:07.304Z,100002.44
2022-11-08T16:49:58.251Z,100007.38
2022-11-08T16:52:46.971Z,100002.66
2022-11-08T16:55:35.656Z,100008.38
2022-11-08T16:58:25.966Z,100012.13
2022-11-08T17:01:16.755Z,100008.22
2022-11-08T17:04:05.667Z,100008.03
2022-11-08T17:06:54.271Z,100018.31
2022-11-08T17:09:42.899Z,100013.38
2022-11-08T17:12:31.473Z,100009.25
2022-11-08T17:15:22.902Z,100012.97
2022-11-08T17:18:13.718Z,100008.84
2022-11-08T17:21:29.923Z,100011.31
2022-11-08T17:24:21.245Z,100004.53
2022-11-08T17:27:10.344Z,100008.03
2022-11-08T17:29:59.250Z,100005.34
2022-11-08T17:32:49.360Z,99997.97
2022-11-08T17:35:42.622Z,99999.38
2022-11-08T17:38:32.608Z,99999.81
2022-11-08T17:41:21.158Z,99999.81
2022-11-08T17:44:09.678Z,100011.09
2022-11-08T17:46:58.381Z,100002.88
2022-11-08T17:49:48.288Z,100007.59
2022-11-08T17:52:37.525Z,100008.34
2022-11-08T17:55:26.096Z,99996.38
2022-11-08T17:58:14.631Z,100010.78
2022-11-08T18:01:05.818Z,100017.97
2022-11-08T18:03:54.491Z,100015.03
2022-11-08T18:06:44.486Z,100012.66
2022-11-08T18:09:33.242Z,100016.72
2022-11-08T18:12:21.708Z,100016.59
2022-11-08T18:15:10.999Z,100009.22
2022-11-08T18:17:59.543Z,100005.31
2022-11-08T18:20:54.661Z,100003.22
2022-11-08T18:23:45.822Z,99997.13
2022-11-08T18:26:34.407Z,100003.19
2022-11-08T18:29:22.950Z,100002.38
2022-11-08T18:32:11.460Z,100007.13
2022-11-08T18:34:59.992Z,99998.78
2022-11-08T18:37:48.492Z,99998.81
2022-11-08T18:40:38.457Z,100000.03
2022-11-08T18:43:27.024Z,100010.75
2022-11-08T18:46:17.555Z,100008.31
2022-11-08T18:49:09.349Z,100018.63
2022-11-08T18:51:58.315Z,100010.00
2022-11-08T18:54:48.520Z,100011.66
2022-11-08T18:57:38.406Z,100009.59
2022-11-08T19:00:26.908Z,100005.28
2022-11-08T19:03:15.605Z,100004.66
2022-11-08T19:06:04.645Z,100001.78
2022-11-08T19:08:53.649Z,99993.94
2022-11-08T19:11:43.471Z,100001.78
2022-11-08T19:14:35.288Z,99991.50
2022-11-08T19:17:24.034Z,99999.94
2022-11-08T19:20:15.196Z,99989.00
2022-11-08T19:23:03.740Z,99988.19
2022-11-08T19:25:56.855Z,99987.78
2022-11-08T19:28:46.651Z,100000.28
2022-11-08T19:31:36.468Z,99997.25
2022-11-08T19:34:25.023Z,99984.69
2022-11-08T19:37:13.498Z,99993.53
2022-11-08T19:40:02.020Z,100003.00
2022-11-08T19:42:50.540Z,100003.44
2022-11-08T19:45:39.040Z,100005.47
2022-11-08T19:48:28.935Z,100006.31
2022-11-08T19:51:18.879Z,100014.94
2022-11-08T19:54:09.560Z,100011.66
2022-11-08T19:57:06.352Z,100010.22
2022-11-08T19:59:55.116Z,100009.59
2022-11-08T20:02:46.663Z,100011.66
2022-11-08T20:05:36.483Z,100007.94
2022-11-08T20:08:25.110Z,99999.31
2022-11-08T20:11:13.947Z,99999.72
2022-11-08T20:14:03.089Z,100000.31
2022-11-08T20:16:53.642Z,100004.66
2022-11-08T20:19:42.432Z,100003.19
2022-11-08T20:22:32.335Z,100005.88
2022-11-08T20:25:20.823Z,100011.66
2022-11-08T20:28:10.344Z,100013.28
2022-11-08T20:31:03.338Z,100012.25
2022-11-08T20:33:53.083Z,100011.66
2022-11-08T20:36:44.050Z,100016.66
2022-11-08T20:39:35.088Z,100012.00
2022-11-08T20:42:24.160Z,100009.13
2022-11-08T20:45:15.284Z,100019.88
2022-11-08T20:48:04.033Z,100012.84
2022-11-08T20:50:52.587Z,100013.13
2022-11-08T20:53:41.484Z,100007.44
2022-11-08T20:56:31.817Z,100008.44
2022-11-08T20:59:20.425Z,100011.34
2022-11-08T21:02:11.316Z,100021.84
2022-11-08T21:04:59.980Z,100009.31
2022-11-08T21:08:56.092Z,100008.31
2022-11-08T21:10:58.096Z,100011.38
2022-11-08T21:13:49.769Z,100010.34
2022-11-08T21:17:06.791Z,100010.34
2022-11-08T21:19:49.302Z,100002.97
2022-11-08T21:22:37.865Z,100011.38
2022-11-08T21:25:26.369Z,100006.25
2022-11-08T21:28:14.882Z,100009.31
2022-11-08T21:31:04.913Z,100001.31
2022-11-08T21:33:53.857Z,100015.69
2022-11-08T21:36:42.350Z,100001.31
2022-11-08T21:39:30.785Z,100006.66
2022-11-08T21:42:19.275Z,100005.84
2022-11-08T21:45:09.226Z,99998.84
2022-11-08T21:47:59.138Z,100007.06
2022-11-08T21:50:47.576Z,100000.09
2022-11-08T21:53:40.856Z,100008.72
2022-11-08T21:56:35.448Z,99993.72
2022-11-08T21:59:23.906Z,100009.75
2022-11-08T22:02:13.154Z,99996.38
2022-11-08T22:05:02.892Z,99995.34
2022-11-08T22:07:51.363Z,99987.34
2022-11-08T22:10:39.843Z,99992.69
2022-11-08T22:13:28.308Z,99991.25
2022-11-08T22:16:16.832Z,99978.28
2022-11-08T22:19:06.169Z,99983.63
2022-11-08T22:21:56.618Z,99979.50
2022-11-08T22:24:45.068Z,99979.69
2022-11-08T22:27:34.156Z,99984.44
2022-11-08T22:30:23.642Z,99985.66
2022-11-08T22:33:12.169Z,99990.22
2022-11-08T22:36:00.668Z,99988.56
2022-11-08T22:38:50.626Z,99980.31
2022-11-08T22:41:39.223Z,99981.16
2022-11-08T22:44:27.708Z,99985.78
2022-11-08T22:47:16.194Z,99997.56
2022-11-08T22:50:05.206Z,99987.91
2022-11-08T22:52:53.695Z,100000.47
2022-11-08T22:55:43.492Z,99988.13
2022-11-08T22:58:32.890Z,99978.69
2022-11-08T23:01:21.393Z,99984.03
2022-11-08T23:04:11.263Z,99986.50
2022-11-08T23:06:59.756Z,99988.13
2022-11-08T23:09:48.228Z,99991.41
2022-11-08T23:12:55.792Z,99988.13
2022-11-08T23:16:01.758Z,99991.84
2022-11-08T23:19:11.224Z,99981.94
2022-11-08T23:22:17.853Z,99977.44
2022-11-08T23:25:07.157Z,99986.50
2022-11-08T23:28:17.253Z,99981.16
2022-11-08T23:31:23.146Z,99985.47
2022-11-08T23:34:11.670Z,99985.69
2022-11-08T23:37:00.141Z,99989.84
2022-11-08T23:40:06.706Z,99990.28
2022-11-08T23:43:23.544Z,99983.91
2022-11-08T23:46:13.578Z,99985.13
2022-11-08T23:49:02.877Z,99981.63
2022-11-08T23:51:51.457Z,99990.66
2022-11-08T23:54:39.968Z,99977.75
2022-11-08T23:57:28.428Z,99979.59
